createdAt,value
2019-03-08T00:00:28.994Z,7.80
2019-03-08T00:02:58.446Z,7.70
2019-03-08T00:05:25.927Z,7.70
2019-03-08T00:07:53.352Z,7.70
2019-03-08T00:10:21.265Z,7.70
2019-03-08T00:12:48.794Z,7.60
2019-03-08T00:15:16.351Z,7.60
2019-03-08T00:17:43.952Z,7.60
2019-03-08T00:20:11.853Z,7.60
2019-03-08T00:22:39.420Z,7.60
2019-03-08T00:25:07.362Z,7.60
2019-03-08T00:27:34.920Z,7.60
2019-03-08T00:30:02.597Z,7.50
2019-03-08T00:32:30.231Z,7.50
2019-03-08T00:34:57.954Z,7.50
2019-03-08T00:37:25.367Z,7.50
2019-03-08T00:39:54.064Z,7.50
2019-03-08T00:42:21.334Z,7.50
2019-03-08T00:44:48.847Z,7.50
2019-03-08T00:47:16.345Z,7.50
2019-03-08T00:49:43.907Z,7.40
2019-03-08T00:52:11.611Z,7.40
2019-03-08T00:54:38.915Z,7.40
2019-03-08T00:57:06.334Z,7.40
2019-03-08T00:59:34.819Z,7.50
2019-03-08T01:02:02.134Z,7.40
2019-03-08T01:04:29.663Z,7.40
2019-03-08T01:06:57.169Z,7.50
2019-03-08T01:09:24.886Z,7.40
2019-03-08T01:11:52.305Z,7.50
2019-03-08T01:14:19.793Z,7.50
2019-03-08T01:16:47.354Z,7.60
2019-03-08T01:19:14.946Z,7.60
2019-03-08T01:21:42.486Z,7.50
2019-03-08T01:24:10.465Z,7.50
2019-03-08T01:26:37.942Z,7.50
2019-03-08T01:29:05.531Z,7.50
2019-03-08T01:31:34.048Z,7.50
2019-03-08T01:34:01.487Z,7.50
2019-03-08T01:36:28.887Z,7.50
2019-03-08T01:38:56.520Z,7.50
2019-03-08T01:41:24.227Z,7.50
2019-03-08T01:43:51.564Z,7.50
2019-03-08T01:46:18.873Z,7.50
2019-03-08T01:48:46.363Z,7.50
2019-03-08T01:51:14.765Z,7.50
2019-03-08T01:53:42.257Z,7.50
2019-03-08T01:56:10.161Z,7.60
2019-03-08T01:58:37.705Z,7.60
2019-03-08T02:01:05.057Z,7.60
2019-03-08T02:03:32.676Z,7.50
2019-03-08T02:06:00.190Z,7.50
2019-03-08T02:08:27.642Z,7.50
2019-03-08T02:10:55.383Z,7.50
2019-03-08T02:13:23.049Z,7.50
2019-03-08T02:15:50.634Z,7.50
2019-03-08T02:18:18.221Z,7.50
2019-03-08T02:20:45.738Z,7.50
2019-03-08T02:23:15.994Z,7.50
2019-03-08T02:25:43.369Z,7.50
2019-03-08T02:28:10.899Z,7.40
2019-03-08T02:30:38.574Z,7.40
2019-03-08T02:33:06.552Z,7.40
2019-03-08T02:35:33.942Z,7.40
2019-03-08T02:38:01.506Z,7.40
2019-03-08T02:40:33.329Z,7.40
2019-03-08T02:43:01.993Z,7.40
2019-03-08T02:45:29.494Z,7.40
2019-03-08T02:47:57.046Z,7.40
2019-03-08T02:50:24.685Z,7.40
2019-03-08T02:52:52.454Z,7.40
2019-03-08T02:55:19.946Z,7.30
2019-03-08T02:57:47.677Z,7.40
2019-03-08T03:00:15.101Z,7.30
2019-03-08T03:02:42.567Z,7.40
2019-03-08T03:05:10.129Z,7.40
2019-03-08T03:07:37.510Z,7.30
2019-03-08T03:10:05.473Z,7.40
2019-03-08T03:12:33.158Z,7.30
2019-03-08T03:15:00.611Z,7.30
2019-03-08T03:17:28.011Z,7.30
2019-03-08T03:19:55.578Z,7.40
2019-03-08T03:22:23.018Z,7.40
2019-03-08T03:24:50.574Z,7.30
2019-03-08T03:27:18.339Z,7.30
2019-03-08T03:29:46.329Z,7.30
2019-03-08T03:32:13.894Z,7.30
2019-03-08T03:34:41.174Z,7.30
2019-03-08T03:37:08.677Z,7.30
2019-03-08T03:39:35.981Z,7.30
2019-03-08T03:42:03.722Z,7.30
2019-03-08T03:44:31.534Z,7.30
2019-03-08T03:46:59.017Z,7.30
2019-03-08T03:49:26.607Z,7.30
2019-03-08T03:51:54.126Z,7.30
2019-03-08T03:54:23.516Z,7.30
2019-03-08T03:56:51.131Z,7.30
2019-03-08T03:59:18.781Z,7.30
2019-03-08T04:01:49.302Z,7.30
2019-03-08T04:04:16.846Z,7.30
2019-03-08T04:06:44.311Z,7.30
2019-03-08T04:09:12.346Z,7.30
2019-03-08T04:11:40.011Z,7.30
2019-03-08T04:14:07.555Z,7.30
2019-03-08T04:16:35.751Z,7.30
2019-03-08T04:19:03.222Z,7.30
2019-03-08T04:21:30.744Z,7.30
2019-03-08T04:23:58.043Z,7.30
2019-03-08T04:26:25.566Z,7.30
2019-03-08T04:28:53.026Z,7.30
2019-03-08T04:31:20.430Z,7.30
2019-03-08T04:33:48.109Z,7.30
2019-03-08T04:36:15.659Z,7.20
2019-03-08T04:38:43.167Z,7.20
2019-03-08T04:41:10.589Z,7.20
2019-03-08T04:43:38.077Z,7.30
2019-03-08T04:46:05.443Z,7.20
2019-03-08T04:48:32.815Z,7.20
2019-03-08T04:51:00.664Z,7.20
2019-03-08T04:53:28.462Z,7.30
2019-03-08T04:55:56.079Z,7.30
2019-03-08T04:58:23.595Z,7.30
2019-03-08T05:00:51.138Z,7.30
2019-03-08T05:03:18.641Z,7.30
2019-03-08T05:05:46.423Z,7.30
2019-03-08T05:08:14.042Z,7.30
2019-03-08T05:10:41.812Z,7.30
2019-03-08T05:13:09.439Z,7.30
2019-03-08T05:15:36.926Z,7.30
2019-03-08T05:18:04.380Z,7.30
2019-03-08T05:20:32.475Z,7.30
2019-03-08T05:22:59.956Z,7.30
2019-03-08T05:25:27.501Z,7.30
2019-03-08T05:27:55.114Z,7.30
2019-03-08T05:30:23.514Z,7.30
2019-03-08T05:32:51.105Z,7.30
2019-03-08T05:35:18.756Z,7.20
2019-03-08T05:37:46.785Z,7.20
2019-03-08T05:40:14.593Z,7.20
2019-03-08T05:42:42.205Z,7.20
2019-03-08T05:45:10.489Z,7.10
2019-03-08T05:47:38.286Z,7.10
2019-03-08T05:50:05.962Z,7.10
2019-03-08T05:52:33.430Z,7.10
2019-03-08T05:55:01.103Z,7.10
2019-03-08T05:57:28.536Z,7.10
2019-03-08T05:59:56.090Z,7.10
2019-03-08T06:02:23.914Z,7.10
2019-03-08T06:04:51.612Z,7.10
2019-03-08T06:07:19.181Z,7.10
2019-03-08T06:09:46.561Z,7.10
2019-03-08T06:12:14.329Z,7.10
2019-03-08T06:14:41.895Z,7.10
2019-03-08T06:17:09.278Z,7.10
2019-03-08T06:19:36.802Z,7.10
2019-03-08T06:22:04.272Z,7.10
2019-03-08T06:24:31.850Z,7.10
2019-03-08T06:26:59.315Z,7.20
2019-03-08T06:29:27.058Z,7.20
2019-03-08T06:31:54.607Z,7.20
2019-03-08T06:34:23.132Z,7.20
2019-03-08T06:36:50.562Z,7.10
2019-03-08T06:39:18.026Z,7.10
2019-03-08T06:41:45.475Z,7.10
2019-03-08T06:44:13.066Z,7.10
2019-03-08T06:46:40.618Z,7.10
2019-03-08T06:49:08.029Z,7.00
2019-03-08T06:51:35.405Z,7.00
2019-03-08T06:54:03.147Z,7.00
2019-03-08T06:56:30.823Z,7.00
2019-03-08T06:59:32.995Z,6.90
2019-03-08T07:02:30.132Z,6.90
2019-03-08T07:04:57.371Z,6.80
2019-03-08T07:07:24.925Z,6.80
2019-03-08T07:09:52.419Z,6.80
2019-03-08T07:12:20.134Z,6.80
2019-03-08T07:14:47.679Z,6.80
2019-03-08T07:17:15.392Z,6.70
2019-03-08T07:20:00.856Z,6.70
2019-03-08T07:22:54.366Z,6.70
2019-03-08T07:25:51.230Z,6.70
2019-03-08T07:28:30.766Z,6.70
2019-03-08T07:31:23.794Z,6.70
2019-03-08T07:34:08.383Z,6.70
2019-03-08T07:36:53.821Z,6.80
2019-03-08T07:39:48.409Z,6.90
2019-03-08T07:42:23.258Z,6.90
2019-03-08T07:45:09.190Z,6.90
2019-03-08T07:48:02.161Z,6.90
2019-03-08T07:50:51.246Z,6.90
2019-03-08T07:53:31.814Z,6.90
2019-03-08T07:56:22.690Z,6.90
2019-03-08T07:59:12.947Z,6.90
2019-03-08T08:02:00.195Z,7.00
2019-03-08T08:04:53.498Z,7.00
2019-03-08T08:07:28.098Z,7.10
2019-03-08T08:10:13.834Z,7.20
2019-03-08T08:13:07.066Z,7.40
2019-03-08T08:16:09.219Z,7.60
2019-03-08T08:18:59.298Z,7.80
2019-03-08T08:22:01.453Z,7.90
2019-03-08T08:24:51.486Z,7.80
2019-03-08T08:27:30.979Z,7.80
2019-03-08T08:30:10.457Z,7.70
2019-03-08T08:33:06.333Z,7.80
2019-03-08T08:35:52.424Z,7.80
2019-03-08T08:38:45.308Z,7.80
2019-03-08T08:41:26.394Z,7.80
2019-03-08T08:44:13.498Z,7.90
2019-03-08T08:47:06.531Z,7.90
2019-03-08T08:49:41.972Z,8.00
2019-03-08T08:52:19.672Z,8.20
2019-03-08T08:55:12.343Z,8.40
2019-03-08T08:58:05.659Z,8.40
2019-03-08T09:01:11.064Z,8.40
2019-03-08T09:03:58.150Z,8.30
2019-03-08T09:06:40.605Z,8.20
2019-03-08T09:09:21.073Z,8.10
2019-03-08T09:11:56.182Z,8.10
2019-03-08T09:14:30.749Z,8.10
2019-03-08T09:17:13.555Z,8.10
2019-03-08T09:20:15.386Z,8.30
2019-03-08T09:23:03.482Z,8.30
2019-03-08T09:25:39.337Z,8.50
2019-03-08T09:28:25.099Z,8.60
2019-03-08T09:31:12.129Z,8.70
2019-03-08T09:33:49.297Z,8.80
2019-03-08T09:36:45.137Z,8.70
2019-03-08T09:39:41.276Z,8.70
2019-03-08T09:42:36.419Z,8.70
2019-03-08T09:45:33.475Z,8.80
2019-03-08T09:48:24.864Z,8.90
2019-03-08T09:51:11.949Z,9.00
2019-03-08T09:53:53.669Z,9.00
2019-03-08T09:56:26.161Z,9.10
2019-03-08T09:59:05.382Z,9.20
2019-03-08T10:01:44.293Z,9.20
2019-03-08T10:04:29.652Z,9.30
2019-03-08T10:07:05.553Z,9.30
2019-03-08T10:09:51.338Z,9.40
2019-03-08T10:12:44.541Z,9.40
2019-03-08T10:15:32.726Z,9.40
2019-03-08T10:18:08.961Z,9.50
2019-03-08T10:20:42.311Z,9.50
2019-03-08T10:23:36.219Z,9.50
2019-03-08T10:26:12.485Z,9.50
2019-03-08T10:28:48.011Z,9.40
2019-03-08T10:31:43.788Z,9.40
2019-03-08T10:34:24.048Z,9.40
2019-03-08T10:37:16.983Z,9.40
2019-03-08T10:40:10.089Z,9.40
2019-03-08T10:42:59.477Z,9.40
2019-03-08T10:45:44.881Z,9.40
2019-03-08T10:48:34.965Z,9.30
2019-03-08T10:51:24.767Z,9.30
2019-03-08T10:54:01.071Z,9.40
2019-03-08T10:56:48.392Z,9.50
2019-03-08T10:59:28.734Z,9.50
2019-03-08T11:02:24.981Z,9.60
2019-03-08T11:04:58.112Z,9.70
2019-03-08T11:07:38.852Z,9.80
2019-03-08T11:10:35.515Z,9.80
2019-03-08T11:13:22.637Z,9.80
2019-03-08T11:16:15.597Z,9.80
2019-03-08T11:18:52.319Z,9.70
2019-03-08T11:21:38.441Z,9.70
2019-03-08T11:27:19.357Z,9.80
2019-03-08T11:30:02.385Z,9.90
2019-03-08T11:32:38.986Z,10.00
2019-03-08T11:35:13.300Z,10.00
2019-03-08T11:37:49.458Z,10.10
2019-03-08T11:40:46.604Z,10.00
2019-03-08T11:43:30.354Z,10.10
2019-03-08T11:46:07.390Z,10.10
2019-03-08T11:48:50.022Z,10.10
2019-03-08T11:51:35.951Z,10.10
2019-03-08T11:54:11.239Z,10.10
2019-03-08T11:56:58.319Z,10.20
2019-03-08T11:59:43.254Z,10.30
2019-03-08T12:02:20.581Z,10.40
2019-03-08T12:05:01.854Z,10.40
2019-03-08T12:07:38.415Z,10.40
2019-03-08T12:10:32.127Z,10.50
2019-03-08T12:13:09.938Z,10.60
2019-03-08T12:15:55.869Z,10.80
2019-03-08T12:18:46.688Z,10.90
2019-03-08T12:21:32.841Z,10.90
2019-03-08T12:24:23.344Z,10.90
2019-03-08T12:27:17.723Z,10.70
2019-03-08T12:30:01.536Z,10.50
2019-03-08T12:32:37.910Z,10.30
2019-03-08T12:35:16.486Z,10.10
2019-03-08T12:38:03.401Z,10.10
2019-03-08T12:40:53.550Z,10.40
2019-03-08T12:43:49.687Z,10.40
2019-03-08T12:46:45.825Z,10.30
2019-03-08T12:49:33.993Z,10.30
2019-03-08T12:52:12.269Z,10.30
2019-03-08T12:55:01.769Z,10.30
2019-03-08T12:58:06.806Z,10.40
2019-03-08T13:00:45.226Z,10.40
2019-03-08T13:03:32.753Z,10.50
2019-03-08T13:06:22.396Z,10.40
2019-03-08T13:08:56.399Z,10.40
2019-03-08T13:11:32.705Z,10.40
2019-03-08T13:13:53.088Z,10.40
2019-03-08T13:16:20.735Z,10.40
2019-03-08T13:18:48.207Z,10.60
2019-03-08T13:21:15.773Z,10.80
2019-03-08T13:23:43.302Z,10.90
2019-03-08T13:26:10.846Z,10.80
2019-03-08T13:28:38.308Z,10.70
2019-03-08T13:31:05.635Z,10.60
2019-03-08T13:33:33.146Z,10.50
2019-03-08T13:36:00.657Z,10.40
2019-03-08T13:38:28.084Z,10.40
2019-03-08T13:40:55.454Z,10.50
2019-03-08T13:43:22.765Z,10.60
2019-03-08T13:45:50.386Z,10.70
2019-03-08T13:48:17.797Z,10.80
2019-03-08T13:50:45.103Z,10.80
2019-03-08T13:53:12.505Z,10.70
2019-03-08T13:55:40.097Z,10.70
2019-03-08T13:58:07.531Z,10.70
2019-03-08T14:00:35.067Z,10.60
2019-03-08T14:03:02.706Z,10.40
2019-03-08T14:05:30.118Z,10.40
2019-03-08T14:07:57.585Z,10.30
2019-03-08T14:10:25.362Z,10.20
2019-03-08T14:12:52.730Z,10.10
2019-03-08T14:15:20.115Z,10.10
2019-03-08T14:17:47.531Z,10.00
2019-03-08T14:20:16.788Z,9.90
2019-03-08T14:22:44.400Z,9.90
2019-03-08T14:25:11.975Z,9.90
2019-03-08T14:27:40.734Z,9.80
2019-03-08T14:30:09.760Z,9.80
2019-03-08T14:32:37.244Z,9.80
2019-03-08T14:35:04.988Z,9.80
2019-03-08T14:37:32.353Z,9.80
2019-03-08T14:40:00.006Z,9.70
2019-03-08T14:42:49.819Z,9.70
2019-03-08T14:45:29.430Z,9.80
2019-03-08T14:47:58.566Z,9.80
2019-03-08T14:50:26.117Z,9.90
2019-03-08T14:52:55.191Z,10.00
2019-03-08T14:55:23.889Z,10.10
2019-03-08T14:57:55.043Z,10.10
2019-03-08T15:00:25.350Z,10.20
2019-03-08T15:02:53.500Z,10.30
2019-03-08T15:05:21.010Z,10.30
2019-03-08T15:07:48.599Z,10.20
2019-03-08T15:10:17.749Z,10.20
2019-03-08T15:12:49.137Z,10.20
2019-03-08T15:15:15.753Z,10.20
2019-03-08T15:17:43.326Z,10.20
2019-03-08T15:20:15.467Z,10.10
2019-03-08T15:22:42.125Z,10.10
2019-03-08T15:25:12.522Z,10.00
2019-03-08T15:27:39.166Z,10.00
2019-03-08T15:30:09.549Z,10.00
2019-03-08T15:32:36.979Z,10.00
2019-03-08T15:35:05.829Z,9.90
2019-03-08T15:37:33.632Z,10.00
2019-03-08T15:40:01.100Z,9.90
2019-03-08T15:42:28.512Z,9.90
2019-03-08T15:44:55.955Z,9.90
2019-03-08T15:47:24.086Z,9.90
2019-03-08T15:49:51.617Z,10.00
2019-03-08T15:52:19.335Z,9.90
2019-03-08T15:54:46.875Z,9.90
2019-03-08T15:57:14.354Z,9.90
2019-03-08T15:59:41.724Z,9.90
2019-03-08T16:02:09.257Z,9.80
2019-03-08T16:04:36.689Z,9.80
2019-03-08T16:07:04.251Z,9.70
2019-03-08T16:09:31.558Z,9.70
2019-03-08T16:11:59.093Z,9.60
2019-03-08T16:14:26.613Z,9.50
2019-03-08T16:16:54.002Z,9.50
2019-03-08T16:19:24.733Z,9.40
2019-03-08T16:21:51.970Z,9.40
2019-03-08T16:24:20.618Z,9.30
2019-03-08T16:26:48.150Z,9.20
2019-03-08T16:29:15.737Z,9.20
2019-03-08T16:32:17.727Z,9.10
2019-03-08T16:34:45.386Z,9.10
2019-03-08T16:37:21.052Z,9.00
2019-03-08T16:40:20.370Z,9.00
2019-03-08T16:43:07.640Z,9.00
2019-03-08T16:45:44.083Z,8.90
2019-03-08T16:48:25.226Z,8.90
2019-03-08T16:51:07.241Z,8.90
2019-03-08T16:53:47.526Z,8.90
2019-03-08T16:56:31.459Z,8.90
2019-03-08T16:59:10.178Z,8.80
2019-03-08T17:01:52.251Z,8.80
2019-03-08T17:04:31.760Z,8.70
2019-03-08T17:07:30.808Z,8.70
2019-03-08T17:10:16.280Z,8.60
2019-03-08T17:12:57.629Z,8.60
2019-03-08T17:15:59.370Z,8.50
2019-03-08T17:18:43.757Z,8.40
2019-03-08T17:21:39.368Z,8.40
2019-03-08T17:24:32.242Z,8.30
2019-03-08T17:27:10.290Z,8.30
2019-03-08T17:30:00.031Z,8.20
2019-03-08T17:32:43.500Z,8.20
2019-03-08T17:35:35.186Z,8.10
2019-03-08T17:38:22.542Z,8.10
2019-03-08T17:41:05.547Z,8.10
2019-03-08T17:43:51.261Z,8.10
2019-03-08T17:46:38.411Z,8.10
2019-03-08T17:49:28.623Z,8.10
2019-03-08T17:52:32.000Z,8.20
2019-03-08T17:55:32.633Z,8.20
2019-03-08T17:58:20.093Z,8.10
2019-03-08T18:01:22.175Z,8.10
2019-03-08T18:04:12.361Z,8.00
2019-03-08T18:07:16.389Z,8.00
2019-03-08T18:10:12.597Z,7.90
2019-03-08T18:13:08.989Z,7.90
2019-03-08T18:15:54.837Z,7.80
2019-03-08T18:18:40.221Z,7.80
2019-03-08T18:21:20.449Z,7.80
2019-03-08T18:24:23.264Z,7.70
2019-03-08T18:27:13.920Z,7.70
2019-03-08T18:30:01.363Z,7.70
2019-03-08T18:32:43.869Z,7.60
2019-03-08T18:35:29.877Z,7.60
2019-03-08T18:38:35.139Z,7.60
2019-03-08T18:41:28.763Z,7.50
2019-03-08T18:44:25.348Z,7.60
2019-03-08T18:47:06.686Z,7.60
2019-03-08T18:50:12.669Z,7.50
2019-03-08T18:52:58.113Z,7.50
2019-03-08T18:55:43.846Z,7.40
2019-03-08T18:58:33.770Z,7.40
2019-03-08T19:01:20.962Z,7.40
2019-03-08T19:04:10.926Z,7.30
2019-03-08T19:07:04.347Z,7.30
2019-03-08T19:09:54.148Z,7.30
2019-03-08T19:12:39.727Z,7.20
2019-03-08T19:15:40.028Z,7.20
2019-03-08T19:18:28.515Z,7.20
2019-03-08T19:21:12.831Z,7.20
2019-03-08T19:23:58.366Z,7.20
2019-03-08T19:26:46.362Z,7.10
2019-03-08T19:29:31.125Z,7.10
2019-03-08T19:32:25.783Z,7.10
2019-03-08T19:35:11.431Z,7.00
2019-03-08T19:38:04.310Z,7.00
2019-03-08T19:40:57.940Z,6.90
2019-03-08T19:43:37.145Z,6.90
2019-03-08T19:46:26.663Z,7.00
2019-03-08T19:49:08.101Z,7.00
2019-03-08T19:51:45.209Z,7.00
2019-03-08T19:54:20.321Z,6.90
2019-03-08T19:57:04.225Z,6.80
2019-03-08T19:59:37.822Z,6.80
2019-03-08T20:02:41.717Z,6.80
2019-03-08T20:05:12.017Z,6.70
2019-03-08T20:07:58.505Z,6.70
2019-03-08T20:11:05.874Z,6.70
2019-03-08T20:13:52.789Z,6.60
2019-03-08T20:16:37.077Z,6.60
2019-03-08T20:19:16.915Z,6.60
2019-03-08T20:22:13.502Z,6.60
2019-03-08T20:25:09.732Z,6.50
2019-03-08T20:27:56.959Z,6.50
2019-03-08T20:30:59.282Z,6.50
2019-03-08T20:33:52.524Z,6.50
2019-03-08T20:36:51.503Z,6.50
2019-03-08T20:39:53.355Z,6.40
2019-03-08T20:42:52.601Z,6.40
2019-03-08T20:45:33.383Z,6.40
2019-03-08T20:48:00.749Z,6.40
2019-03-08T20:50:28.372Z,6.30
2019-03-08T20:52:55.868Z,6.30
2019-03-08T20:55:23.262Z,6.40
2019-03-08T20:57:50.559Z,6.40
2019-03-08T21:00:18.614Z,6.40
2019-03-08T21:02:46.270Z,6.40
2019-03-08T21:05:14.038Z,6.40
2019-03-08T21:07:41.802Z,6.40
2019-03-08T21:10:09.636Z,6.40
2019-03-08T21:12:36.993Z,6.40
2019-03-08T21:15:06.538Z,6.40
2019-03-08T21:17:35.150Z,6.50
2019-03-08T21:20:03.248Z,6.50
2019-03-08T21:22:30.767Z,6.50
2019-03-08T21:24:59.886Z,6.50
2019-03-08T21:27:27.694Z,6.40
2019-03-08T21:29:55.245Z,6.40
2019-03-08T21:32:22.786Z,6.40
2019-03-08T21:34:50.325Z,6.40
2019-03-08T21:37:18.113Z,6.40
2019-03-08T21:39:45.633Z,6.40
2019-03-08T21:42:13.371Z,6.40
2019-03-08T21:44:40.686Z,6.40
2019-03-08T21:47:08.407Z,6.40
2019-03-08T21:49:35.861Z,6.40
2019-03-08T21:52:03.224Z,6.40
2019-03-08T21:54:30.910Z,6.40
2019-03-08T21:57:11.677Z,6.40
2019-03-08T21:59:39.207Z,6.40
2019-03-08T22:02:06.508Z,6.40
2019-03-08T22:04:55.002Z,6.40
2019-03-08T22:07:22.497Z,6.50
2019-03-08T22:10:04.417Z,6.50
2019-03-08T22:12:32.340Z,6.40
2019-03-08T22:14:59.975Z,6.40
2019-03-08T22:17:27.816Z,6.40
2019-03-08T22:19:55.214Z,6.40
2019-03-08T22:22:22.838Z,6.40
2019-03-08T22:24:50.417Z,6.40
2019-03-08T22:27:19.776Z,6.40
2019-03-08T22:29:47.314Z,6.40
2019-03-08T22:32:14.950Z,6.40
2019-03-08T22:34:42.648Z,6.40
2019-03-08T22:37:10.231Z,6.40
2019-03-08T22:39:37.870Z,6.40
2019-03-08T22:42:05.426Z,6.40
2019-03-08T22:44:32.943Z,6.50
2019-03-08T22:47:00.461Z,6.50
2019-03-08T22:49:27.914Z,6.50
2019-03-08T22:51:55.347Z,6.50
2019-03-08T22:54:22.730Z,6.50
2019-03-08T22:56:51.380Z,6.50
2019-03-08T22:59:19.113Z,6.50
2019-03-08T23:01:52.212Z,6.60
2019-03-08T23:04:19.750Z,6.60
2019-03-08T23:06:47.279Z,6.60
2019-03-08T23:09:15.989Z,6.60
2019-03-08T23:11:43.864Z,6.60
2019-03-08T23:14:11.569Z,6.60
2019-03-08T23:16:51.907Z,6.70
2019-03-08T23:19:19.330Z,6.70
2019-03-08T23:21:46.726Z,6.70
2019-03-08T23:24:14.245Z,6.80
2019-03-08T23:27:06.423Z,6.80
2019-03-08T23:29:56.135Z,6.80
2019-03-08T23:32:28.270Z,6.80
2019-03-08T23:34:55.689Z,6.80
2019-03-08T23:37:23.206Z,6.80
2019-03-08T23:39:50.724Z,6.90
2019-03-08T23:42:18.217Z,6.90
2019-03-08T23:44:45.936Z,6.90
2019-03-08T23:47:13.417Z,6.90
2019-03-08T23:49:40.895Z,6.90
2019-03-08T23:52:08.485Z,6.90
2019-03-08T23:54:35.916Z,6.90
2019-03-08T23:57:05.267Z,7.00
2019-03-08T23:59:32.712Z,7.00
